Terminal Aerodrome Forecast
Issued by NWS

Home | Current Version | Previous Version | Text Only | Print | Product List | Glossary On
Versions: 1 2 3 4 5 6 7 8 9 10 11 12 13
000
FTUS42 KTBW 290527
TAFLAL
TAF
KLAL 290527Z 2906/3006 VRB03KT P6SM SKC
      TEMPO 2910/2912 5SM BR
     FM291400 VRB05KT P6SM FEW040 SCT250
     FM291800 VRB05KT P6SM SCT050 SCT250
     FM292300 31009KT P6SM SCT060 SCT250
     FM300200 VRB04KT P6SM FEW070 SCT250
      AMD NOT SKED 2906/2911=

USA.gov is the U.S. government's official web portal to all federal, state and local government web resources and services.